sensor_id;sensor_type;location;lat;lon;timestamp;P1;durP1;ratioP1;P2;durP2;ratioP2
39256;SDS011;67272;48.066;11.038;2023-04-25T00:01:47;2.10;;;1.90;;
39256;SDS011;67272;48.066;11.038;2023-04-25T00:04:14;3.13;;;2.03;;
39256;SDS011;67272;48.066;11.038;2023-04-25T00:06:44;2.00;;;1.77;;
39256;SDS011;67272;48.066;11.038;2023-04-25T00:09:10;1.90;;;1.80;;
39256;SDS011;67272;48.066;11.038;2023-04-25T00:11:40;3.73;;;2.00;;
39256;SDS011;67272;48.066;11.038;2023-04-25T00:14:06;2.30;;;2.10;;
39256;SDS011;67272;48.066;11.038;2023-04-25T00:16:33;2.17;;;1.97;;
39256;SDS011;67272;48.066;11.038;2023-04-25T00:19:06;1.73;;;1.63;;
39256;SDS011;67272;48.066;11.038;2023-04-25T00:21:32;2.10;;;1.90;;
39256;SDS011;67272;48.066;11.038;2023-04-25T00:23:59;2.50;;;2.10;;
39256;SDS011;67272;48.066;11.038;2023-04-25T00:26:29;2.30;;;2.10;;
39256;SDS011;67272;48.066;11.038;2023-04-25T00:28:55;2.03;;;1.87;;
39256;SDS011;67272;48.066;11.038;2023-04-25T00:31:28;2.00;;;1.90;;
39256;SDS011;67272;48.066;11.038;2023-04-25T00:33:55;2.83;;;1.93;;
39256;SDS011;67272;48.066;11.038;2023-04-25T00:36:21;2.73;;;2.13;;
39256;SDS011;67272;48.066;11.038;2023-04-25T00:38:56;2.50;;;2.30;;
39256;SDS011;67272;48.066;11.038;2023-04-25T00:41:26;2.03;;;1.90;;
39256;SDS011;67272;48.066;11.038;2023-04-25T00:43:56;2.90;;;2.00;;
39256;SDS011;67272;48.066;11.038;2023-04-25T00:46:28;3.00;;;2.00;;
39256;SDS011;67272;48.066;11.038;2023-04-25T00:48:58;2.53;;;1.90;;
39256;SDS011;67272;48.066;11.038;2023-04-25T00:51:28;2.20;;;2.00;;
39256;SDS011;67272;48.066;11.038;2023-04-25T00:53:59;1.87;;;1.73;;
39256;SDS011;67272;48.066;11.038;2023-04-25T00:56:25;4.23;;;2.20;;
39256;SDS011;67272;48.066;11.038;2023-04-25T00:58:53;2.03;;;1.83;;
39256;SDS011;67272;48.066;11.038;2023-04-25T01:01:21;3.37;;;2.10;;
39256;SDS011;67272;48.066;11.038;2023-04-25T01:03:51;2.33;;;1.80;;
39256;SDS011;67272;48.066;11.038;2023-04-25T01:06:18;2.40;;;2.20;;
39256;SDS011;67272;48.066;11.038;2023-04-25T01:08:44;2.20;;;2.00;;
39256;SDS011;67272;48.066;11.038;2023-04-25T01:11:11;2.43;;;2.10;;
39256;SDS011;67272;48.066;11.038;2023-04-25T01:13:37;3.60;;;2.03;;
39256;SDS011;67272;48.066;11.038;2023-04-25T01:16:06;2.20;;;2.00;;
39256;SDS011;67272;48.066;11.038;2023-04-25T01:18:33;2.30;;;2.10;;
39256;SDS011;67272;48.066;11.038;2023-04-25T01:21:06;2.40;;;2.20;;
39256;SDS011;67272;48.066;11.038;2023-04-25T01:23:33;2.30;;;2.10;;
39256;SDS011;67272;48.066;11.038;2023-04-25T01:26:00;3.10;;;2.37;;
39256;SDS011;67272;48.066;11.038;2023-04-25T01:28:30;2.23;;;2.03;;
39256;SDS011;67272;48.066;11.038;2023-04-25T01:30:57;2.30;;;2.10;;
39256;SDS011;67272;48.066;11.038;2023-04-25T01:33:26;3.27;;;2.30;;
39256;SDS011;67272;48.066;11.038;2023-04-25T01:35:56;2.40;;;2.20;;
39256;SDS011;67272;48.066;11.038;2023-04-25T01:38:25;3.20;;;2.37;;
39256;SDS011;67272;48.066;11.038;2023-04-25T01:40:55;3.33;;;2.20;;
39256;SDS011;67272;48.066;11.038;2023-04-25T01:43:22;3.33;;;2.63;;
39256;SDS011;67272;48.066;11.038;2023-04-25T01:45:54;1.90;;;1.80;;
39256;SDS011;67272;48.066;11.038;2023-04-25T01:48:21;2.30;;;2.10;;
39256;SDS011;67272;48.066;11.038;2023-04-25T01:50:47;2.37;;;2.17;;
39256;SDS011;67272;48.066;11.038;2023-04-25T01:53:14;2.53;;;2.33;;
39256;SDS011;67272;48.066;11.038;2023-04-25T01:55:43;2.67;;;2.47;;
39256;SDS011;67272;48.066;11.038;2023-04-25T01:58:16;2.60;;;2.40;;
39256;SDS011;67272;48.066;11.038;2023-04-25T02:01:17;2.20;;;2.00;;
39256;SDS011;67272;48.066;11.038;2023-04-25T02:03:54;2.57;;;2.20;;
39256;SDS011;67272;48.066;11.038;2023-04-25T02:06:35;2.57;;;2.20;;
39256;SDS011;67272;48.066;11.038;2023-04-25T02:09:01;3.80;;;2.70;;
39256;SDS011;67272;48.066;11.038;2023-04-25T02:11:30;2.90;;;2.20;;
39256;SDS011;67272;48.066;11.038;2023-04-25T02:14:18;3.97;;;2.50;;
39256;SDS011;67272;48.066;11.038;2023-04-25T02:16:55;3.30;;;2.40;;
39256;SDS011;67272;48.066;11.038;2023-04-25T02:19:25;3.53;;;2.43;;
39256;SDS011;67272;48.066;11.038;2023-04-25T02:21:55;2.60;;;2.20;;
39256;SDS011;67272;48.066;11.038;2023-04-25T02:24:22;2.33;;;2.10;;
39256;SDS011;67272;48.066;11.038;2023-04-25T02:26:48;3.87;;;2.43;;
39256;SDS011;67272;48.066;11.038;2023-04-25T02:29:15;2.73;;;2.30;;
39256;SDS011;67272;48.066;11.038;2023-04-25T02:31:42;2.10;;;1.90;;
39256;SDS011;67272;48.066;11.038;2023-04-25T02:34:14;1.93;;;1.60;;
39256;SDS011;67272;48.066;11.038;2023-04-25T02:36:41;2.23;;;2.00;;
39256;SDS011;67272;48.066;11.038;2023-04-25T02:39:07;1.60;;;1.50;;
39256;SDS011;67272;48.066;11.038;2023-04-25T02:41:34;3.23;;;1.73;;
39256;SDS011;67272;48.066;11.038;2023-04-25T02:44:03;2.73;;;1.80;;
39256;SDS011;67272;48.066;11.038;2023-04-25T02:46:29;3.37;;;1.60;;
39256;SDS011;67272;48.066;11.038;2023-04-25T02:48:55;1.97;;;1.80;;
39256;SDS011;67272;48.066;11.038;2023-04-25T02:51:22;1.90;;;1.50;;
39256;SDS011;67272;48.066;11.038;2023-04-25T02:53:48;2.07;;;1.80;;
39256;SDS011;67272;48.066;11.038;2023-04-25T02:56:17;2.77;;;1.70;;
39256;SDS011;67272;48.066;11.038;2023-04-25T02:58:44;1.63;;;1.53;;
39256;SDS011;67272;48.066;11.038;2023-04-25T03:01:11;2.33;;;2.10;;
39256;SDS011;67272;48.066;11.038;2023-04-25T03:03:37;1.57;;;1.47;;
39256;SDS011;67272;48.066;11.038;2023-04-25T03:06:03;1.60;;;1.47;;
39256;SDS011;67272;48.066;11.038;2023-04-25T03:08:32;1.90;;;1.40;;
39256;SDS011;67272;48.066;11.038;2023-04-25T03:11:01;2.17;;;1.70;;
39256;SDS011;67272;48.066;11.038;2023-04-25T03:13:27;2.13;;;1.77;;
39256;SDS011;67272;48.066;11.038;2023-04-25T03:15:56;2.00;;;1.73;;
39256;SDS011;67272;48.066;11.038;2023-04-25T03:18:22;2.23;;;1.70;;
39256;SDS011;67272;48.066;11.038;2023-04-25T03:20:49;2.93;;;1.50;;
39256;SDS011;67272;48.066;11.038;2023-04-25T03:23:15;2.10;;;1.77;;
39256;SDS011;67272;48.066;11.038;2023-04-25T03:25:42;2.10;;;1.90;;
39256;SDS011;67272;48.066;11.038;2023-04-25T03:28:08;4.43;;;2.00;;
39256;SDS011;67272;48.066;11.038;2023-04-25T03:30:35;2.20;;;1.83;;
39256;SDS011;67272;48.066;11.038;2023-04-25T03:33:01;2.13;;;1.77;;
39256;SDS011;67272;48.066;11.038;2023-04-25T03:35:28;2.47;;;1.77;;
39256;SDS011;67272;48.066;11.038;2023-04-25T03:37:54;2.23;;;1.53;;
39256;SDS011;67272;48.066;11.038;2023-04-25T03:40:32;3.53;;;1.67;;
39256;SDS011;67272;48.066;11.038;2023-04-25T03:43:19;1.87;;;1.77;;
39256;SDS011;67272;48.066;11.038;2023-04-25T03:45:51;2.10;;;1.90;;
39256;SDS011;67272;48.066;11.038;2023-04-25T03:48:20;2.03;;;1.83;;
39256;SDS011;67272;48.066;11.038;2023-04-25T03:50:50;2.30;;;2.10;;
39256;SDS011;67272;48.066;11.038;2023-04-25T03:53:20;2.20;;;2.00;;
39256;SDS011;67272;48.066;11.038;2023-04-25T03:56:05;1.87;;;1.77;;
39256;SDS011;67272;48.066;11.038;2023-04-25T03:58:34;2.50;;;1.90;;
39256;SDS011;67272;48.066;11.038;2023-04-25T04:01:04;1.73;;;1.63;;
39256;SDS011;67272;48.066;11.038;2023-04-25T04:03:35;1.70;;;1.60;;
39256;SDS011;67272;48.066;11.038;2023-04-25T04:06:05;3.07;;;1.70;;
39256;SDS011;67272;48.066;11.038;2023-04-25T04:08:41;2.83;;;2.00;;
39256;SDS011;67272;48.066;11.038;2023-04-25T04:11:09;1.80;;;1.70;;
39256;SDS011;67272;48.066;11.038;2023-04-25T04:13:45;2.53;;;2.00;;
39256;SDS011;67272;48.066;11.038;2023-04-25T04:16:14;2.10;;;1.90;;
39256;SDS011;67272;48.066;11.038;2023-04-25T04:18:41;2.57;;;2.20;;
39256;SDS011;67272;48.066;11.038;2023-04-25T04:21:07;2.80;;;2.03;;
39256;SDS011;67272;48.066;11.038;2023-04-25T04:23:37;4.37;;;2.43;;
39256;SDS011;67272;48.066;11.038;2023-04-25T04:26:13;3.37;;;2.60;;
39256;SDS011;67272;48.066;11.038;2023-04-25T04:28:55;2.43;;;2.23;;
39256;SDS011;67272;48.066;11.038;2023-04-25T04:31:30;2.83;;;2.53;;
39256;SDS011;67272;48.066;11.038;2023-04-25T04:34:00;3.03;;;2.70;;
39256;SDS011;67272;48.066;11.038;2023-04-25T04:36:27;4.10;;;3.00;;
39256;SDS011;67272;48.066;11.038;2023-04-25T04:38:54;3.50;;;2.53;;
39256;SDS011;67272;48.066;11.038;2023-04-25T04:41:35;3.15;;;2.85;;
39256;SDS011;67272;48.066;11.038;2023-04-25T04:44:25;2.87;;;2.63;;
39256;SDS011;67272;48.066;11.038;2023-04-25T04:47:08;3.60;;;3.30;;
39256;SDS011;67272;48.066;11.038;2023-04-25T04:49:54;5.60;;;2.97;;
39256;SDS011;67272;48.066;11.038;2023-04-25T04:52:39;3.00;;;2.60;;
39256;SDS011;67272;48.066;11.038;2023-04-25T04:55:24;3.40;;;2.67;;
39256;SDS011;67272;48.066;11.038;2023-04-25T04:58:02;4.83;;;2.33;;
39256;SDS011;67272;48.066;11.038;2023-04-25T05:00:46;3.67;;;3.10;;
39256;SDS011;67272;48.066;11.038;2023-04-25T05:03:34;3.13;;;2.83;;
39256;SDS011;67272;48.066;11.038;2023-04-25T05:06:26;4.83;;;3.60;;
39256;SDS011;67272;48.066;11.038;2023-04-25T05:09:12;5.00;;;2.90;;
39256;SDS011;67272;48.066;11.038;2023-04-25T05:12:00;4.50;;;3.37;;
39256;SDS011;67272;48.066;11.038;2023-04-25T05:14:38;4.23;;;2.80;;
39256;SDS011;67272;48.066;11.038;2023-04-25T05:17:25;3.80;;;2.77;;
39256;SDS011;67272;48.066;11.038;2023-04-25T05:20:10;3.37;;;2.97;;
39256;SDS011;67272;48.066;11.038;2023-04-25T05:23:08;4.60;;;3.40;;
39256;SDS011;67272;48.066;11.038;2023-04-25T05:25:48;3.50;;;3.00;;
39256;SDS011;67272;48.066;11.038;2023-04-25T05:28:30;3.63;;;2.90;;
39256;SDS011;67272;48.066;11.038;2023-04-25T05:31:15;3.40;;;3.10;;
39256;SDS011;67272;48.066;11.038;2023-04-25T05:34:19;3.90;;;3.13;;
39256;SDS011;67272;48.066;11.038;2023-04-25T05:36:54;3.67;;;3.23;;
39256;SDS011;67272;48.066;11.038;2023-04-25T05:39:20;5.53;;;3.20;;
39256;SDS011;67272;48.066;11.038;2023-04-25T05:42:11;5.23;;;3.53;;
39256;SDS011;67272;48.066;11.038;2023-04-25T05:44:58;3.37;;;3.07;;
39256;SDS011;67272;48.066;11.038;2023-04-25T05:47:40;4.67;;;3.17;;
39256;SDS011;67272;48.066;11.038;2023-04-25T05:50:15;4.63;;;3.30;;
39256;SDS011;67272;48.066;11.038;2023-04-25T05:52:51;3.50;;;3.20;;
39256;SDS011;67272;48.066;11.038;2023-04-25T05:55:29;3.80;;;3.50;;
39256;SDS011;67272;48.066;11.038;2023-04-25T05:57:57;4.07;;;3.27;;
39256;SDS011;67272;48.066;11.038;2023-04-25T06:00:23;3.90;;;3.43;;
39256;SDS011;67272;48.066;11.038;2023-04-25T06:02:50;4.37;;;3.60;;
39256;SDS011;67272;48.066;11.038;2023-04-25T06:05:17;4.77;;;3.90;;
39256;SDS011;67272;48.066;11.038;2023-04-25T06:07:45;4.33;;;3.70;;
39256;SDS011;67272;48.066;11.038;2023-04-25T06:10:12;5.60;;;3.60;;
39256;SDS011;67272;48.066;11.038;2023-04-25T06:12:38;5.33;;;4.10;;
39256;SDS011;67272;48.066;11.038;2023-04-25T06:15:05;5.27;;;3.97;;
39256;SDS011;67272;48.066;11.038;2023-04-25T06:17:31;4.17;;;3.77;;
39256;SDS011;67272;48.066;11.038;2023-04-25T06:19:57;4.40;;;4.00;;
39256;SDS011;67272;48.066;11.038;2023-04-25T06:22:24;6.20;;;4.40;;
39256;SDS011;67272;48.066;11.038;2023-04-25T06:24:50;5.57;;;4.00;;
39256;SDS011;67272;48.066;11.038;2023-04-25T06:27:16;4.70;;;3.47;;
39256;SDS011;67272;48.066;11.038;2023-04-25T06:29:42;3.97;;;3.20;;
39256;SDS011;67272;48.066;11.038;2023-04-25T06:32:08;5.03;;;3.03;;
39256;SDS011;67272;48.066;11.038;2023-04-25T06:34:35;3.40;;;3.10;;
39256;SDS011;67272;48.066;11.038;2023-04-25T06:37:01;4.67;;;3.13;;
39256;SDS011;67272;48.066;11.038;2023-04-25T06:39:27;4.23;;;3.83;;
39256;SDS011;67272;48.066;11.038;2023-04-25T06:41:54;5.47;;;3.73;;
39256;SDS011;67272;48.066;11.038;2023-04-25T06:44:44;3.90;;;3.40;;
39256;SDS011;67272;48.066;11.038;2023-04-25T06:47:12;4.43;;;3.10;;
39256;SDS011;67272;48.066;11.038;2023-04-25T06:49:40;3.87;;;2.90;;
39256;SDS011;67272;48.066;11.038;2023-04-25T06:52:07;3.10;;;2.70;;
39256;SDS011;67272;48.066;11.038;2023-04-25T06:54:34;4.37;;;3.27;;
39256;SDS011;67272;48.066;11.038;2023-04-25T06:57:08;3.97;;;3.00;;
39256;SDS011;67272;48.066;11.038;2023-04-25T06:59:34;3.80;;;2.80;;
39256;SDS011;67272;48.066;11.038;2023-04-25T07:02:01;4.37;;;3.40;;
39256;SDS011;67272;48.066;11.038;2023-04-25T07:04:28;3.30;;;2.97;;
39256;SDS011;67272;48.066;11.038;2023-04-25T07:06:57;3.63;;;2.90;;
39256;SDS011;67272;48.066;11.038;2023-04-25T07:09:32;4.57;;;3.17;;
39256;SDS011;67272;48.066;11.038;2023-04-25T07:11:59;2.47;;;2.27;;
39256;SDS011;67272;48.066;11.038;2023-04-25T07:14:27;4.27;;;2.43;;
39256;SDS011;67272;48.066;11.038;2023-04-25T07:16:53;4.43;;;2.20;;
39256;SDS011;67272;48.066;11.038;2023-04-25T07:19:22;2.70;;;1.88;;
39256;SDS011;67272;48.066;11.038;2023-04-25T07:21:54;3.15;;;1.90;;
39256;SDS011;67272;48.066;11.038;2023-04-25T07:24:20;2.55;;;2.35;;
39256;SDS011;67272;48.066;11.038;2023-04-25T07:26:48;2.33;;;2.10;;
39256;SDS011;67272;48.066;11.038;2023-04-25T07:29:46;3.38;;;2.38;;
39256;SDS011;67272;48.066;11.038;2023-04-25T07:32:12;2.25;;;2.05;;
39256;SDS011;67272;48.066;11.038;2023-04-25T07:34:41;2.35;;;2.15;;
39256;SDS011;67272;48.066;11.038;2023-04-25T07:37:07;2.83;;;2.20;;
39256;SDS011;67272;48.066;11.038;2023-04-25T07:39:42;2.40;;;2.20;;
39256;SDS011;67272;48.066;11.038;2023-04-25T07:42:09;3.00;;;2.40;;
39256;SDS011;67272;48.066;11.038;2023-04-25T07:44:39;2.22;;;2.03;;
39256;SDS011;67272;48.066;11.038;2023-04-25T07:47:07;3.13;;;2.50;;
39256;SDS011;67272;48.066;11.038;2023-04-25T07:49:34;5.03;;;2.13;;
39256;SDS011;67272;48.066;11.038;2023-04-25T07:52:00;1.95;;;1.75;;
39256;SDS011;67272;48.066;11.038;2023-04-25T07:54:27;2.25;;;2.05;;
39256;SDS011;67272;48.066;11.038;2023-04-25T07:56:58;2.17;;;2.03;;
39256;SDS011;67272;48.066;11.038;2023-04-25T07:59:28;2.50;;;1.80;;
39256;SDS011;67272;48.066;11.038;2023-04-25T08:01:54;3.53;;;1.85;;
39256;SDS011;67272;48.066;11.038;2023-04-25T08:04:23;2.25;;;1.85;;
39256;SDS011;67272;48.066;11.038;2023-04-25T08:06:58;1.90;;;1.75;;
39256;SDS011;67272;48.066;11.038;2023-04-25T08:09:28;3.15;;;1.88;;
39256;SDS011;67272;48.066;11.038;2023-04-25T08:11:58;2.65;;;2.17;;
39256;SDS011;67272;48.066;11.038;2023-04-25T08:14:30;2.45;;;2.25;;
39256;SDS011;67272;48.066;11.038;2023-04-25T08:17:02;3.95;;;2.30;;
39256;SDS011;67272;48.066;11.038;2023-04-25T08:19:29;2.30;;;2.03;;
39256;SDS011;67272;48.066;11.038;2023-04-25T08:21:56;1.80;;;1.70;;
39256;SDS011;67272;48.066;11.038;2023-04-25T08:24:29;3.05;;;1.70;;
39256;SDS011;67272;48.066;11.038;2023-04-25T08:26:56;2.15;;;1.80;;
39256;SDS011;67272;48.066;11.038;2023-04-25T08:29:26;1.80;;;1.70;;
39256;SDS011;67272;48.066;11.038;2023-04-25T08:31:53;1.75;;;1.55;;
39256;SDS011;67272;48.066;11.038;2023-04-25T08:34:19;2.85;;;1.83;;
39256;SDS011;67272;48.066;11.038;2023-04-25T08:36:49;2.00;;;1.80;;
39256;SDS011;67272;48.066;11.038;2023-04-25T08:39:23;2.17;;;1.75;;
39256;SDS011;67272;48.066;11.038;2023-04-25T08:42:22;1.73;;;1.63;;
39256;SDS011;67272;48.066;11.038;2023-04-25T08:44:49;1.83;;;1.70;;
39256;SDS011;67272;48.066;11.038;2023-04-25T08:47:17;2.08;;;1.48;;
39256;SDS011;67272;48.066;11.038;2023-04-25T08:49:49;1.73;;;1.63;;
39256;SDS011;67272;48.066;11.038;2023-04-25T08:52:19;1.92;;;1.65;;
39256;SDS011;67272;48.066;11.038;2023-04-25T08:54:48;2.13;;;1.90;;
39256;SDS011;67272;48.066;11.038;2023-04-25T08:57:15;2.08;;;1.80;;
39256;SDS011;67272;48.066;11.038;2023-04-25T08:59:43;2.58;;;1.92;;
39256;SDS011;67272;48.066;11.038;2023-04-25T09:02:11;2.70;;;1.70;;
39256;SDS011;67272;48.066;11.038;2023-04-25T09:04:42;2.30;;;1.90;;
39256;SDS011;67272;48.066;11.038;2023-04-25T09:07:09;2.20;;;2.00;;
39256;SDS011;67272;48.066;11.038;2023-04-25T09:09:37;1.90;;;1.80;;
39256;SDS011;67272;48.066;11.038;2023-04-25T09:12:04;3.50;;;1.83;;
39256;SDS011;67272;48.066;11.038;2023-04-25T09:14:31;3.30;;;1.48;;
39256;SDS011;67272;48.066;11.038;2023-04-25T09:17:02;1.80;;;1.70;;
39256;SDS011;67272;48.066;11.038;2023-04-25T09:19:37;1.88;;;1.70;;
39256;SDS011;67272;48.066;11.038;2023-04-25T09:22:15;2.67;;;2.10;;
39256;SDS011;67272;48.066;11.038;2023-04-25T09:24:46;2.22;;;1.90;;
39256;SDS011;67272;48.066;11.038;2023-04-25T09:27:19;1.90;;;1.80;;
39256;SDS011;67272;48.066;11.038;2023-04-25T09:29:56;2.10;;;1.63;;
39256;SDS011;67272;48.066;11.038;2023-04-25T09:32:24;1.90;;;1.80;;
39256;SDS011;67272;48.066;11.038;2023-04-25T09:34:54;3.10;;;1.88;;
39256;SDS011;67272;48.066;11.038;2023-04-25T09:40:09;1.67;;;1.58;;
39256;SDS011;67272;48.066;11.038;2023-04-25T09:42:49;3.17;;;1.70;;
39256;SDS011;67272;48.066;11.038;2023-04-25T09:45:16;2.30;;;2.10;;
39256;SDS011;67272;48.066;11.038;2023-04-25T09:47:43;2.60;;;1.92;;
39256;SDS011;67272;48.066;11.038;2023-04-25T09:50:15;1.90;;;1.80;;
39256;SDS011;67272;48.066;11.038;2023-04-25T09:52:45;2.15;;;1.80;;
39256;SDS011;67272;48.066;11.038;2023-04-25T09:55:22;2.30;;;2.10;;
39256;SDS011;67272;48.066;11.038;2023-04-25T09:57:49;2.00;;;1.80;;
39256;SDS011;67272;48.066;11.038;2023-04-25T10:00:19;2.03;;;1.73;;
39256;SDS011;67272;48.066;11.038;2023-04-25T10:02:47;1.90;;;1.80;;
39256;SDS011;67272;48.066;11.038;2023-04-25T10:05:36;2.42;;;1.95;;
39256;SDS011;67272;48.066;11.038;2023-04-25T10:08:03;2.30;;;2.03;;
39256;SDS011;67272;48.066;11.038;2023-04-25T10:10:30;2.53;;;2.00;;
39256;SDS011;67272;48.066;11.038;2023-04-25T10:13:02;2.65;;;2.03;;
39256;SDS011;67272;48.066;11.038;2023-04-25T10:15:29;1.63;;;1.40;;
39256;SDS011;67272;48.066;11.038;2023-04-25T10:17:56;1.80;;;1.70;;
39256;SDS011;67272;48.066;11.038;2023-04-25T10:20:22;2.20;;;1.70;;
39256;SDS011;67272;48.066;11.038;2023-04-25T10:22:49;1.87;;;1.70;;
39256;SDS011;67272;48.066;11.038;2023-04-25T10:25:22;2.70;;;1.70;;
39256;SDS011;67272;48.066;11.038;2023-04-25T10:27:51;2.23;;;1.80;;
39256;SDS011;67272;48.066;11.038;2023-04-25T10:30:18;1.50;;;1.40;;
39256;SDS011;67272;48.066;11.038;2023-04-25T10:32:44;2.20;;;1.50;;
39256;SDS011;67272;48.066;11.038;2023-04-25T10:37:55;2.33;;;1.70;;
